Time;durP1;ratioP1;P1;durP2;ratioP2;P2;SDS_P1;SDS_P2;PMS_P1;PMS_P2;Temp;Humidity;BMP_temperature;BMP_pressure;BME280_temperature;BME280_humidity;BME280_pressure;Samples;Min_cycle;Max_cycle;Signal;HPM_P1;HPM_P2
2022/10/16 00:09:32;;;;;;;2.55;1.25;;;13.50;99.90;;;;;;20635835;28;20049;-82
2022/10/16 00:19:33;;;;;;;1.15;0.50;;;13.50;99.90;;;;;;20654568;28;20030;-81
2022/10/16 00:29:34;;;;;;;0.85;0.50;;;13.40;99.90;;;;;;20650678;28;20037;-82
2022/10/16 00:39:35;;;;;;;3.05;0.93;;;13.40;99.90;;;;;;20658307;28;20042;-82
2022/10/16 00:49:36;;;;;;;2.47;0.88;;;13.50;99.90;;;;;;20645344;28;20050;-82
2022/10/16 00:59:39;;;;;;;1.17;0.70;;;13.50;99.90;;;;;;20646933;28;20053;-82
2022/10/16 01:10:07;;;;;;;3.53;1.00;;;13.60;99.90;;;;;;20651849;28;20109;-84
2022/10/16 01:20:20;;;;;;;1.50;0.90;;;13.70;99.90;;;;;;20638426;28;20164;-85
2022/10/16 01:30:28;;;;;;;1.98;0.60;;;13.70;99.90;;;;;;20626660;28;20042;-83
2022/10/16 01:40:31;;;;;;;1.27;0.40;;;13.80;99.90;;;;;;20639040;28;20030;-83
2022/10/16 01:50:39;;;;;;;1.60;0.32;;;13.80;99.90;;;;;;20631803;28;20333;-83
2022/10/16 02:00:44;;;;;;;0.93;0.40;;;13.70;99.90;;;;;;20633881;28;20043;-83
2022/10/16 02:10:45;;;;;;;1.40;0.70;;;13.70;99.90;;;;;;20623249;28;20708;-84
2022/10/16 02:20:57;;;;;;;1.63;0.60;;;13.60;99.90;;;;;;20624162;28;20128;-85
2022/10/16 02:41:56;;;;;;;1.77;0.80;;;13.40;99.90;;;;;;13466841;22;20144;-83
2022/10/16 02:51:57;;;;;;;3.17;0.75;;;13.30;99.90;;;;;;20570009;28;20042;-83
2022/10/16 03:01:58;;;;;;;2.08;0.90;;;13.40;99.90;;;;;;20589620;28;20054;-82
2022/10/16 03:11:59;;;;;;;1.55;0.65;;;13.40;99.90;;;;;;20571064;28;20042;-82
2022/10/16 03:22:00;;;;;;;1.48;0.68;;;13.30;99.90;;;;;;20543753;28;20074;-82
2022/10/16 03:32:02;;;;;;;3.13;1.15;;;13.30;99.90;;;;;;20545498;28;20229;-82
2022/10/16 03:42:03;;;;;;;1.45;0.43;;;13.20;99.90;;;;;;20567637;28;20136;-82
2022/10/16 03:52:04;;;;;;;1.20;0.95;;;13.30;99.90;;;;;;20602608;28;20535;-82
2022/10/16 04:02:05;;;;;;;2.13;0.75;;;13.30;99.90;;;;;;20607094;28;20527;-82
2022/10/16 04:12:06;;;;;;;1.25;0.55;;;13.30;99.90;;;;;;20608808;28;20620;-82
2022/10/16 04:22:07;;;;;;;0.60;0.40;;;13.40;99.90;;;;;;20629642;28;20100;-83
2022/10/16 04:32:09;;;;;;;1.10;0.50;;;13.40;99.90;;;;;;20657704;28;20046;-82
2022/10/16 04:42:10;;;;;;;2.90;0.40;;;13.30;99.90;;;;;;20651523;28;20046;-83
2022/10/16 04:52:11;;;;;;;1.67;0.43;;;13.20;99.90;;;;;;20628832;28;20018;-83
2022/10/16 05:02:12;;;;;;;1.55;0.45;;;13.00;99.90;;;;;;20670158;28;20037;-82
2022/10/16 05:12:13;;;;;;;1.40;0.57;;;13.10;99.90;;;;;;20634951;28;20042;-82
2022/10/16 05:22:14;;;;;;;1.40;0.45;;;13.00;99.90;;;;;;20656973;28;20038;-82
2022/10/16 05:32:16;;;;;;;1.58;0.45;;;13.00;99.90;;;;;;20653898;28;20034;-83
2022/10/16 05:42:17;;;;;;;1.88;1.02;;;13.00;99.90;;;;;;20638726;28;20046;-83
2022/10/16 05:52:18;;;;;;;1.33;0.50;;;13.00;99.90;;;;;;20629668;28;20044;-82
2022/10/16 06:02:19;;;;;;;1.33;0.75;;;13.00;99.90;;;;;;20632558;28;20046;-82
2022/10/16 06:12:21;;;;;;;1.40;0.70;;;12.90;99.90;;;;;;20643279;28;20088;-82
2022/10/16 06:22:22;;;;;;;1.27;0.50;;;12.90;99.90;;;;;;20628181;28;20049;-82
2022/10/16 06:32:23;;;;;;;3.28;1.45;;;12.70;99.90;;;;;;20623041;28;20038;-83
2022/10/16 06:42:24;;;;;;;6.75;3.15;;;12.60;99.90;;;;;;20629749;28;20046;-82
2022/10/16 06:52:27;;;;;;;5.68;1.73;;;12.70;99.90;;;;;;20620815;28;20043;-82
2022/10/16 07:02:29;;;;;;;6.25;2.75;;;12.80;99.90;;;;;;20644996;28;20053;-83
2022/10/16 07:12:30;;;;;;;3.53;0.77;;;12.90;99.90;;;;;;20633587;28;20049;-82
2022/10/16 07:22:31;;;;;;;1.23;0.50;;;13.10;99.90;;;;;;20633167;28;20100;-82
2022/10/16 07:32:32;;;;;;;13.70;1.58;;;13.10;99.90;;;;;;20635087;28;20698;-82
2022/10/16 07:42:33;;;;;;;2.33;0.60;;;13.30;99.90;;;;;;20571807;28;20116;-83
2022/10/16 07:52:34;;;;;;;1.60;0.40;;;13.30;99.90;;;;;;20585436;28;20031;-81
2022/10/16 08:02:35;;;;;;;0.88;0.40;;;13.60;99.90;;;;;;20553592;28;20047;-83
2022/10/16 08:12:36;;;;;;;1.13;0.50;;;13.80;99.90;;;;;;20555833;28;20030;-83
2022/10/16 08:22:37;;;;;;;1.13;0.73;;;14.00;99.90;;;;;;20574066;28;20541;-82
2022/10/16 08:32:38;;;;;;;1.92;0.40;;;14.20;99.90;;;;;;20585957;28;20034;-82
2022/10/16 08:42:59;;;;;;;1.48;0.50;;;14.50;99.90;;;;;;20588160;28;20101;-82
2022/10/16 08:53:00;;;;;;;6.45;1.52;;;14.70;99.90;;;;;;20571424;28;22238;-81
2022/10/16 09:03:43;;;;;;;2.90;0.68;;;15.00;99.90;;;;;;20537540;28;20476;-82
2022/10/16 09:13:54;;;;;;;4.10;0.93;;;15.00;99.90;;;;;;20600253;28;21008;-82
2022/10/16 09:23:59;;;;;;;1.27;0.73;;;15.10;99.90;;;;;;20567269;28;20601;-82
2022/10/16 09:34:06;;;;;;;2.55;0.60;;;15.10;99.90;;;;;;20581193;28;20034;-82
2022/10/16 09:44:28;;;;;;;1.88;0.75;;;15.20;99.90;;;;;;20577892;28;20140;-82
2022/10/16 09:54:29;;;;;;;2.95;0.50;;;15.30;99.90;;;;;;20630346;28;20592;-82
2022/10/16 10:04:41;;;;;;;2.75;0.85;;;15.60;99.90;;;;;;20634088;28;20468;-82
2022/10/16 10:15:06;;;;;;;2.92;0.77;;;15.90;99.90;;;;;;20647133;28;20073;-83
2022/10/16 10:25:13;;;;;;;8.10;2.38;;;16.20;99.90;;;;;;20635413;28;20456;-83
2022/10/16 10:35:43;;;;;;;3.07;1.43;;;16.40;99.90;;;;;;20616352;28;21706;-83
2022/10/16 10:45:52;;;;;;;4.85;0.60;;;16.70;99.90;;;;;;20588016;28;20656;-82
2022/10/16 10:56:16;;;;;;;1.40;0.43;;;17.00;99.90;;;;;;20629586;28;20054;-82
2022/10/16 11:06:24;;;;;;;1.85;0.90;;;17.70;99.90;;;;;;20550752;28;20705;-82
2022/10/16 11:16:34;;;;;;;5.47;1.60;;;18.20;99.90;;;;;;20592393;28;20086;-82
2022/10/16 11:26:40;;;;;;;1.60;0.60;;;18.60;99.90;;;;;;20607445;28;20806;-82
2022/10/16 11:36:50;;;;;;;1.73;0.43;;;18.40;99.90;;;;;;20601981;28;20049;-82
2022/10/16 11:47:28;;;;;;;1.17;0.40;;;19.00;99.90;;;;;;20627333;28;20049;-82
2022/10/16 11:57:38;;;;;;;2.85;0.55;;;19.70;99.90;;;;;;20628693;28;20035;-82
2022/10/16 12:07:47;;;;;;;1.27;0.40;;;19.60;99.90;;;;;;20618751;28;20054;-82
2022/10/16 12:17:50;;;;;;;2.03;0.75;;;19.80;99.90;;;;;;20630866;28;20558;-80
2022/10/16 12:27:56;;;;;;;2.30;0.75;;;20.10;99.90;;;;;;20651043;28;20521;-80
2022/10/16 12:38:27;;;;;;;1.13;0.40;;;20.30;99.90;;;;;;20637099;28;20459;-80
2022/10/16 12:48:28;;;;;;;1.35;0.50;;;20.10;99.90;;;;;;20647219;28;20659;-80
2022/10/16 12:58:57;;;;;;;0.93;0.35;;;19.70;99.90;;;;;;20664145;28;20108;-80
2022/10/16 13:09:18;;;;;;;1.08;0.30;;;19.60;99.90;;;;;;20598141;28;20114;-80
2022/10/16 13:19:43;;;;;;;2.22;0.40;;;20.20;99.90;;;;;;20600388;28;20916;-80
2022/10/16 13:29:44;;;;;;;1.13;0.52;;;19.30;99.90;;;;;;20587634;28;20675;-80
2022/10/16 13:39:46;;;;;;;2.35;1.10;;;19.20;99.90;;;;;;20589866;28;20252;-80
2022/10/16 13:50:04;;;;;;;2.60;1.17;;;18.70;99.90;;;;;;20608605;28;20542;-82
2022/10/16 14:00:17;;;;;;;;;;;18.10;99.90;;;;;;20553815;28;20130;-82
2022/10/16 14:10:24;;;;;;;2.53;0.88;;;18.30;99.90;;;;;;20528986;28;20749;-80
2022/10/16 14:20:28;;;;;;;2.40;0.80;;;18.20;99.90;;;;;;20536338;28;20044;-82
2022/10/16 14:30:32;;;;;;;1.00;0.32;;;17.90;99.90;;;;;;20517394;28;20528;-82
2022/10/16 14:40:36;;;;;;;3.83;1.02;;;17.70;99.90;;;;;;20536345;28;20107;-84
2022/10/16 14:50:37;;;;;;;2.33;0.60;;;17.70;99.90;;;;;;20538503;28;20042;-83
2022/10/16 15:00:38;;;;;;;1.75;0.60;;;17.60;99.90;;;;;;20531965;28;20051;-82
2022/10/16 15:10:42;;;;;;;1.60;0.88;;;17.50;99.90;;;;;;20552452;28;21358;-82
2022/10/16 15:20:43;;;;;;;2.13;0.60;;;17.50;99.90;;;;;;20531266;28;20051;-82
2022/10/16 15:30:45;;;;;;;1.35;0.65;;;17.50;99.90;;;;;;20534865;28;20070;-83
2022/10/16 15:40:47;;;;;;;2.28;0.60;;;17.30;99.90;;;;;;20528298;28;20055;-83
2022/10/16 15:50:48;;;;;;;8.05;0.30;;;17.10;99.90;;;;;;20521845;28;20112;-82
2022/10/16 16:00:57;;;;;;;1.75;0.57;;;16.70;99.90;;;;;;20545874;28;20037;-82
2022/10/16 16:11:13;;;;;;;1.00;0.38;;;16.50;99.90;;;;;;20557999;28;20394;-83
2022/10/16 16:21:14;;;;;;;4.93;0.70;;;16.10;99.90;;;;;;20553996;28;20043;-83
2022/10/16 16:31:15;;;;;;;1.85;0.85;;;15.90;99.90;;;;;;20541775;28;20348;-83
2022/10/16 16:41:23;;;;;;;2.00;0.73;;;15.60;99.90;;;;;;20592137;28;20070;-87
2022/10/16 16:51:24;;;;;;;2.13;0.70;;;15.60;99.90;;;;;;20548996;28;20074;-82
2022/10/16 17:01:26;;;;;;;4.53;1.10;;;15.60;99.90;;;;;;20546662;28;20041;-83
2022/10/16 17:11:27;;;;;;;6.85;1.83;;;15.20;99.90;;;;;;20584757;28;20699;-84
2022/10/16 17:21:29;;;;;;;6.63;2.80;;;15.00;99.90;;;;;;20572478;28;20054;-83
2022/10/16 17:31:35;;;;;;;6.88;2.08;;;15.00;99.90;;;;;;20597660;28;20115;-82
2022/10/16 17:41:36;;;;;;;5.13;2.65;;;15.00;99.90;;;;;;20523929;28;20046;-81
2022/10/16 17:51:37;;;;;;;4.68;2.08;;;14.80;99.90;;;;;;20530002;28;20100;-82
2022/10/16 18:01:40;;;;;;;3.75;1.27;;;14.90;99.90;;;;;;20538854;28;21694;-82
2022/10/16 18:11:41;;;;;;;5.38;2.22;;;14.80;99.90;;;;;;20568442;28;21014;-82
2022/10/16 18:21:42;;;;;;;6.07;2.72;;;14.80;99.90;;;;;;20572871;28;20402;-82
2022/10/16 18:31:43;;;;;;;4.57;1.90;;;14.80;99.90;;;;;;20570849;28;20057;-82
2022/10/16 18:41:44;;;;;;;2.63;1.42;;;14.80;99.90;;;;;;20564362;28;20039;-82
2022/10/16 18:51:47;;;;;;;2.78;1.42;;;14.80;99.90;;;;;;20610608;28;20077;-82
2022/10/16 19:01:49;;;;;;;6.30;2.22;;;14.80;99.90;;;;;;20555005;28;20049;-81
2022/10/16 19:11:50;;;;;;;3.00;1.92;;;14.80;99.90;;;;;;20541616;28;20064;-82
2022/10/16 19:21:56;;;;;;;3.95;1.63;;;14.70;99.90;;;;;;20550670;28;20981;-81
2022/10/16 19:32:01;;;;;;;5.13;1.83;;;14.60;99.90;;;;;;20554849;28;20660;-81
2022/10/16 19:42:02;;;;;;;6.53;1.45;;;14.50;99.90;;;;;;20560189;28;20173;-81
2022/10/16 19:52:03;;;;;;;3.22;1.38;;;14.40;99.90;;;;;;20516448;28;20053;-82
2022/10/16 20:02:04;;;;;;;3.05;1.60;;;14.50;99.90;;;;;;20545638;28;20119;-82
2022/10/16 20:12:05;;;;;;;3.53;1.73;;;14.30;99.90;;;;;;20529516;28;20083;-82
2022/10/16 20:22:06;;;;;;;3.38;2.05;;;14.20;99.90;;;;;;20557572;28;20084;-82
2022/10/16 20:32:07;;;;;;;2.17;0.80;;;14.00;99.90;;;;;;20620850;28;20217;-82
2022/10/16 20:42:07;;;;;;;2.95;1.25;;;14.00;99.90;;;;;;20589453;28;20042;-82
2022/10/16 20:52:09;;;;;;;2.88;1.40;;;14.10;99.90;;;;;;20623183;28;20054;-83
2022/10/16 21:02:10;;;;;;;2.30;0.93;;;14.30;99.90;;;;;;20623505;28;20048;-81
2022/10/16 21:12:11;;;;;;;3.28;1.05;;;14.40;99.90;;;;;;20539793;28;20222;-82
2022/10/16 21:22:12;;;;;;;2.30;1.20;;;14.50;99.90;;;;;;20568212;28;20045;-83
2022/10/16 21:32:13;;;;;;;2.00;1.05;;;14.50;99.90;;;;;;20577527;28;20085;-82
2022/10/16 21:42:14;;;;;;;2.53;0.88;;;14.60;99.90;;;;;;20602484;28;20140;-83
2022/10/16 21:52:15;;;;;;;2.15;0.73;;;14.70;99.90;;;;;;20621863;28;20048;-83
2022/10/16 22:02:16;;;;;;;1.30;0.80;;;14.70;99.90;;;;;;20550388;28;20529;-82
2022/10/16 22:12:18;;;;;;;1.52;0.90;;;14.80;99.90;;;;;;20580344;28;21301;-82
2022/10/16 22:22:19;;;;;;;1.70;0.63;;;14.90;99.90;;;;;;20583482;28;20502;-82
2022/10/16 22:32:20;;;;;;;1.23;0.80;;;14.90;99.90;;;;;;20612980;28;20401;-82
2022/10/16 22:42:21;;;;;;;0.90;0.40;;;15.10;99.90;;;;;;20583147;28;20052;-83
2022/10/16 22:52:22;;;;;;;3.05;1.20;;;15.10;99.90;;;;;;20609941;28;20057;-83
2022/10/16 23:02:23;;;;;;;1.20;0.60;;;15.20;99.90;;;;;;20604817;28;20042;-82
2022/10/16 23:12:25;;;;;;;2.17;0.95;;;15.20;99.90;;;;;;20624258;28;20522;-82
2022/10/16 23:22:26;;;;;;;2.35;1.02;;;15.10;99.90;;;;;;20596790;28;20106;-83
2022/10/16 23:32:27;;;;;;;2.30;1.15;;;15.00;99.90;;;;;;20556542;28;20052;-82
2022/10/16 23:42:28;;;;;;;3.50;1.30;;;15.00;99.90;;;;;;20606527;28;20203;-83
2022/10/16 23:52:29;;;;;;;5.25;0.90;;;14.90;99.90;;;;;;20598474;28;20047;-82
